This is the latest recevied weather packets stored in our database for station/object AG1T-20. If no packets are shown the sender has not sent any weather packets the latest 10 day(s).
| Time | Temp. | Humidity | Pressure | Rain* | Wind** | Luminosity | Snow |
|---|---|---|---|---|---|---|---|
| 1778045405 | 12.78° C | 45% | 1013.4 hPa | 0 mm | - | 0 W/m² | - |
| 1778044805 | 12.78° C | 46% | 1013.4 hPa | 0 mm | - | 0 W/m² | - |
| 1778044205 | 11.11° C | 74% | 1013.4 hPa | 0 mm | - | 0 W/m² | - |
| 1778043605 | 11.67° C | 71% | 1013.4 hPa | 0 mm | - | 0 W/m² | - |
| 1778043005 | 11.11° C | 70% | 1012.9 hPa | 0 mm | - | 0 W/m² | - |
| 1778042405 | 11.67° C | 70% | 1012.9 hPa | 0 mm | - | 0 W/m² | - |
| 1778041805 | 11.67° C | 69% | 1012.9 hPa | 0 mm | - | 0 W/m² | - |
| 1778041205 | 11.67° C | 70% | 1012.9 hPa | 0 mm | - | 0 W/m² | - |
| 1778040605 | 11.67° C | 72% | 1012.9 hPa | 0 mm | - | 0 W/m² | - |
| 1778040005 | 11.67° C | 69% | 1012.9 hPa | 0 mm | - | 0 W/m² | - |
| 1778039405 | 11.67° C | 69% | 1012.2 hPa | 0 mm | - | 0 W/m² | - |
| 1778038805 | 12.22° C | 70% | 1012.2 hPa | 0 mm | - | 0 W/m² | - |
| 1778038207 | 12.22° C | 68% | 1012.2 hPa | 0 mm | - | 0 W/m² | - |
| 1778037605 | 12.78° C | 67% | 1012.2 hPa | 0 mm | - | 0 W/m² | - |
| 1778037005 | 12.78° C | 66% | 1012.2 hPa | 0 mm | - | 0 W/m² | - |
| 1778036405 | 12.78° C | 68% | 1012.2 hPa | 0 mm | - | 0 W/m² | - |
| 1778035805 | 12.78° C | 62% | 1011.1 hPa | 0 mm | - | 0 W/m² | - |
| 1778035205 | 12.22° C | 63% | 1011.1 hPa | 0 mm | - | 0 W/m² | - |
| 1778034605 | 12.22° C | 62% | 1011.1 hPa | 0 mm | - | 2 W/m² | - |
| 1778034005 | 12.78° C | 62% | 1011.1 hPa | 0 mm | - | 5 W/m² | - |
| 1778033405 | 13.33° C | 58% | 1011.1 hPa | 0 mm | - | 8 W/m² | - |
| 1778032805 | 15° C | 53% | 1011.1 hPa | 0 mm | - | 13 W/m² | - |
| 1778032205 | 17.78° C | 43% | 1011.1 hPa | 0 mm | - | 17 W/m² | - |
| 1778031605 | 18.89° C | 39% | 1011.1 hPa | 0 mm | - | 28 W/m² | - |
| 1778031005 | 18.89° C | 40% | 1011.1 hPa | 0 mm | - | 32 W/m² | - |
* Rain latest hour (hover to see other rain measurements)
** Current wind speed in m/s (hover to see current wind gust speed)